Terminal Aerodrome Forecast
Issued by NWS Goodland, KS

Home | Current Version | Previous Version | Text Only | Print | Product List | Glossary On
Versions: 1 2 3 4 5 6 7 8 9 10 11 12 13 14
000
FTUS43 KGLD 150317 AAA
TAFGLD
TAF AMD
KGLD 150317Z 1503/1524 33009KT P6SM SKC WS010/34040KT
     FM150700 31010KT P6SM SKC
     FM151300 27005KT P6SM SKC=

USA.gov is the U.S. government's official web portal to all federal, state and local government web resources and services.